sensor_id;sensor_type;location;lat;lon;timestamp;P1;durP1;ratioP1;P2;durP2;ratioP2
18399;SDS011;9326;49.468;11.008;2022-10-12T05:01:07;16.73;;;12.60;;
18399;SDS011;9326;49.468;11.008;2022-10-12T05:03:35;16.67;;;12.40;;
18399;SDS011;9326;49.468;11.008;2022-10-12T05:06:02;16.13;;;12.50;;
18399;SDS011;9326;49.468;11.008;2022-10-12T05:08:29;14.47;;;12.73;;
18399;SDS011;9326;49.468;11.008;2022-10-12T05:10:56;12.53;;;11.10;;
18399;SDS011;9326;49.468;11.008;2022-10-12T05:13:24;13.70;;;12.10;;
18399;SDS011;9326;49.468;11.008;2022-10-12T05:15:51;14.80;;;12.37;;
18399;SDS011;9326;49.468;11.008;2022-10-12T05:18:19;15.20;;;13.20;;
18399;SDS011;9326;49.468;11.008;2022-10-12T05:20:46;18.37;;;13.63;;
18399;SDS011;9326;49.468;11.008;2022-10-12T05:23:13;15.20;;;12.63;;
18399;SDS011;9326;49.468;11.008;2022-10-12T05:25:41;15.73;;;12.83;;
18399;SDS011;9326;49.468;11.008;2022-10-12T05:28:08;19.10;;;13.57;;
18399;SDS011;9326;49.468;11.008;2022-10-12T05:30:35;16.03;;;13.00;;
18399;SDS011;9326;49.468;11.008;2022-10-12T05:33:02;17.73;;;13.37;;
18399;SDS011;9326;49.468;11.008;2022-10-12T05:35:30;15.10;;;13.50;;
18399;SDS011;9326;49.468;11.008;2022-10-12T05:37:57;15.27;;;13.40;;
18399;SDS011;9326;49.468;11.008;2022-10-12T05:40:24;18.17;;;13.43;;
18399;SDS011;9326;49.468;11.008;2022-10-12T05:42:51;16.87;;;13.27;;
18399;SDS011;9326;49.468;11.008;2022-10-12T05:45:18;14.90;;;13.30;;
18399;SDS011;9326;49.468;11.008;2022-10-12T05:47:45;17.43;;;12.53;;
18399;SDS011;9326;49.468;11.008;2022-10-12T05:50:13;15.33;;;12.70;;
18399;SDS011;9326;49.468;11.008;2022-10-12T05:52:41;16.73;;;12.77;;
18399;SDS011;9326;49.468;11.008;2022-10-12T05:55:08;17.10;;;12.63;;
18399;SDS011;9326;49.468;11.008;2022-10-12T05:57:35;19.13;;;12.70;;
18399;SDS011;9326;49.468;11.008;2022-10-12T06:00:03;14.30;;;12.73;;
18399;SDS011;9326;49.468;11.008;2022-10-12T06:02:30;16.23;;;12.37;;
18399;SDS011;9326;49.468;11.008;2022-10-12T06:04:57;15.17;;;12.37;;
18399;SDS011;9326;49.468;11.008;2022-10-12T06:07:25;18.93;;;13.43;;
18399;SDS011;9326;49.468;11.008;2022-10-12T06:09:53;18.60;;;13.27;;
18399;SDS011;9326;49.468;11.008;2022-10-12T06:12:20;15.53;;;12.73;;
18399;SDS011;9326;49.468;11.008;2022-10-12T06:14:48;15.03;;;13.17;;
18399;SDS011;9326;49.468;11.008;2022-10-12T06:17:16;18.87;;;12.50;;
18399;SDS011;9326;49.468;11.008;2022-10-12T06:19:43;14.87;;;13.07;;
18399;SDS011;9326;49.468;11.008;2022-10-12T06:22:10;16.97;;;11.60;;
18399;SDS011;9326;49.468;11.008;2022-10-12T06:24:37;16.20;;;12.30;;
18399;SDS011;9326;49.468;11.008;2022-10-12T06:27:05;17.07;;;12.70;;
18399;SDS011;9326;49.468;11.008;2022-10-12T06:29:33;15.23;;;12.20;;
18399;SDS011;9326;49.468;11.008;2022-10-12T06:32:02;14.77;;;12.27;;
18399;SDS011;9326;49.468;11.008;2022-10-12T06:34:29;15.03;;;13.30;;
18399;SDS011;9326;49.468;11.008;2022-10-12T06:36:56;14.60;;;12.37;;
18399;SDS011;9326;49.468;11.008;2022-10-12T06:39:23;14.60;;;11.73;;
18399;SDS011;9326;49.468;11.008;2022-10-12T06:41:50;14.87;;;12.23;;
18399;SDS011;9326;49.468;11.008;2022-10-12T06:44:19;14.03;;;12.13;;
18399;SDS011;9326;49.468;11.008;2022-10-12T06:46:47;15.27;;;12.47;;
18399;SDS011;9326;49.468;11.008;2022-10-12T06:49:14;15.67;;;12.43;;
18399;SDS011;9326;49.468;11.008;2022-10-12T06:51:41;14.87;;;12.33;;
18399;SDS011;9326;49.468;11.008;2022-10-12T06:54:08;16.87;;;12.50;;
18399;SDS011;9326;49.468;11.008;2022-10-12T06:56:35;15.70;;;12.87;;
18399;SDS011;9326;49.468;11.008;2022-10-12T06:59:03;14.50;;;12.03;;
18399;SDS011;9326;49.468;11.008;2022-10-12T07:01:32;15.50;;;12.17;;
18399;SDS011;9326;49.468;11.008;2022-10-12T07:03:59;16.20;;;12.50;;
18399;SDS011;9326;49.468;11.008;2022-10-12T07:06:26;15.63;;;11.97;;
18399;SDS011;9326;49.468;11.008;2022-10-12T07:08:53;17.40;;;12.60;;
18399;SDS011;9326;49.468;11.008;2022-10-12T07:11:20;12.97;;;11.53;;
18399;SDS011;9326;49.468;11.008;2022-10-12T07:13:47;14.77;;;12.60;;
18399;SDS011;9326;49.468;11.008;2022-10-12T07:16:15;17.33;;;12.10;;
18399;SDS011;9326;49.468;11.008;2022-10-12T07:18:43;17.50;;;11.53;;
18399;SDS011;9326;49.468;11.008;2022-10-12T07:21:10;16.77;;;11.40;;
18399;SDS011;9326;49.468;11.008;2022-10-12T07:23:37;15.70;;;12.07;;
18399;SDS011;9326;49.468;11.008;2022-10-12T07:26:04;15.30;;;12.20;;
18399;SDS011;9326;49.468;11.008;2022-10-12T07:28:32;16.73;;;12.73;;
18399;SDS011;9326;49.468;11.008;2022-10-12T07:31:00;17.03;;;12.23;;
18399;SDS011;9326;49.468;11.008;2022-10-12T07:33:29;14.37;;;11.83;;
18399;SDS011;9326;49.468;11.008;2022-10-12T07:35:59;15.97;;;11.47;;
18399;SDS011;9326;49.468;11.008;2022-10-12T07:38:27;18.67;;;12.53;;
18399;SDS011;9326;49.468;11.008;2022-10-12T07:40:56;15.70;;;12.30;;
18399;SDS011;9326;49.468;11.008;2022-10-12T07:43:24;14.57;;;11.70;;
18399;SDS011;9326;49.468;11.008;2022-10-12T07:45:51;15.60;;;12.40;;
18399;SDS011;9326;49.468;11.008;2022-10-12T07:48:18;14.53;;;12.40;;
18399;SDS011;9326;49.468;11.008;2022-10-12T07:50:45;17.90;;;13.13;;
18399;SDS011;9326;49.468;11.008;2022-10-12T07:53:13;17.83;;;13.40;;
18399;SDS011;9326;49.468;11.008;2022-10-12T07:55:41;14.53;;;11.73;;
18399;SDS011;9326;49.468;11.008;2022-10-12T07:58:08;16.60;;;12.17;;
18399;SDS011;9326;49.468;11.008;2022-10-12T08:00:35;14.87;;;12.23;;
18399;SDS011;9326;49.468;11.008;2022-10-12T08:03:02;15.63;;;13.07;;
18399;SDS011;9326;49.468;11.008;2022-10-12T08:05:30;18.13;;;13.20;;
18399;SDS011;9326;49.468;11.008;2022-10-12T08:07:57;17.30;;;13.37;;
18399;SDS011;9326;49.468;11.008;2022-10-12T08:10:26;16.40;;;12.80;;
18399;SDS011;9326;49.468;11.008;2022-10-12T08:12:53;16.53;;;12.93;;
18399;SDS011;9326;49.468;11.008;2022-10-12T08:15:20;17.77;;;13.50;;
18399;SDS011;9326;49.468;11.008;2022-10-12T08:17:47;15.63;;;14.10;;
18399;SDS011;9326;49.468;11.008;2022-10-12T08:20:14;14.77;;;13.17;;
18399;SDS011;9326;49.468;11.008;2022-10-12T08:22:42;16.67;;;13.53;;
18399;SDS011;9326;49.468;11.008;2022-10-12T08:25:09;14.60;;;13.03;;
18399;SDS011;9326;49.468;11.008;2022-10-12T08:27:37;16.80;;;13.97;;
18399;SDS011;9326;49.468;11.008;2022-10-12T08:30:04;15.97;;;14.27;;
18399;SDS011;9326;49.468;11.008;2022-10-12T08:32:32;18.00;;;14.13;;
18399;SDS011;9326;49.468;11.008;2022-10-12T08:34:59;15.33;;;13.57;;
18399;SDS011;9326;49.468;11.008;2022-10-12T08:37:27;16.00;;;13.93;;
18399;SDS011;9326;49.468;11.008;2022-10-12T08:39:54;17.40;;;14.70;;
18399;SDS011;9326;49.468;11.008;2022-10-12T08:42:28;18.67;;;14.77;;
18399;SDS011;9326;49.468;11.008;2022-10-12T08:45:12;17.03;;;14.23;;
18399;SDS011;9326;49.468;11.008;2022-10-12T08:47:45;20.37;;;14.77;;
18399;SDS011;9326;49.468;11.008;2022-10-12T08:50:16;17.83;;;15.10;;
18399;SDS011;9326;49.468;11.008;2022-10-12T08:52:46;19.50;;;14.77;;
18399;SDS011;9326;49.468;11.008;2022-10-12T08:55:16;17.43;;;15.33;;
18399;SDS011;9326;49.468;11.008;2022-10-12T08:57:44;19.77;;;15.43;;
18399;SDS011;9326;49.468;11.008;2022-10-12T09:00:13;19.97;;;15.90;;
18399;SDS011;9326;49.468;11.008;2022-10-12T09:02:46;18.03;;;14.60;;
18399;SDS011;9326;49.468;11.008;2022-10-12T09:05:16;21.30;;;15.70;;
18399;SDS011;9326;49.468;11.008;2022-10-12T09:07:45;19.73;;;15.40;;
18399;SDS011;9326;49.468;11.008;2022-10-12T09:10:18;19.67;;;15.97;;
18399;SDS011;9326;49.468;11.008;2022-10-12T09:12:49;21.00;;;15.70;;
18399;SDS011;9326;49.468;11.008;2022-10-12T09:15:20;22.00;;;16.13;;
18399;SDS011;9326;49.468;11.008;2022-10-12T09:17:49;20.00;;;15.63;;
18399;SDS011;9326;49.468;11.008;2022-10-12T09:20:18;21.70;;;16.80;;
18399;SDS011;9326;49.468;11.008;2022-10-12T09:22:47;20.33;;;15.90;;
18399;SDS011;9326;49.468;11.008;2022-10-12T09:25:15;22.93;;;16.83;;
18399;SDS011;9326;49.468;11.008;2022-10-12T09:27:43;21.33;;;17.57;;
18399;SDS011;9326;49.468;11.008;2022-10-12T09:30:11;22.37;;;17.63;;
18399;SDS011;9326;49.468;11.008;2022-10-12T09:32:43;23.97;;;17.50;;
18399;SDS011;9326;49.468;11.008;2022-10-12T09:35:13;23.27;;;17.60;;
18399;SDS011;9326;49.468;11.008;2022-10-12T09:37:40;23.73;;;18.20;;
18399;SDS011;9326;49.468;11.008;2022-10-12T09:40:12;21.00;;;18.27;;
18399;SDS011;9326;49.468;11.008;2022-10-12T09:42:40;21.93;;;18.63;;
18399;SDS011;9326;49.468;11.008;2022-10-12T09:45:11;25.77;;;18.43;;
18399;SDS011;9326;49.468;11.008;2022-10-12T09:47:40;24.37;;;18.47;;
18399;SDS011;9326;49.468;11.008;2022-10-12T09:50:08;22.30;;;19.37;;
18399;SDS011;9326;49.468;11.008;2022-10-12T09:52:38;24.83;;;18.37;;
18399;SDS011;9326;49.468;11.008;2022-10-12T09:55:17;25.57;;;19.27;;
18399;SDS011;9326;49.468;11.008;2022-10-12T09:57:50;25.50;;;19.53;;
18399;SDS011;9326;49.468;11.008;2022-10-12T10:00:22;26.13;;;19.27;;
18399;SDS011;9326;49.468;11.008;2022-10-12T10:02:50;23.63;;;17.93;;
18399;SDS011;9326;49.468;11.008;2022-10-12T10:05:23;24.47;;;18.73;;
18399;SDS011;9326;49.468;11.008;2022-10-12T10:07:50;28.90;;;18.83;;
18399;SDS011;9326;49.468;11.008;2022-10-12T10:10:18;23.83;;;18.90;;
18399;SDS011;9326;49.468;11.008;2022-10-12T10:12:49;24.97;;;19.07;;
18399;SDS011;9326;49.468;11.008;2022-10-12T10:15:21;22.87;;;18.77;;
18399;SDS011;9326;49.468;11.008;2022-10-12T10:17:49;23.27;;;18.80;;
18399;SDS011;9326;49.468;11.008;2022-10-12T10:20:23;26.77;;;19.60;;
18399;SDS011;9326;49.468;11.008;2022-10-12T10:22:51;22.47;;;18.13;;
18399;SDS011;9326;49.468;11.008;2022-10-12T10:25:18;28.20;;;18.67;;
18399;SDS011;9326;49.468;11.008;2022-10-12T10:27:46;26.40;;;18.67;;
18399;SDS011;9326;49.468;11.008;2022-10-12T10:30:19;25.80;;;18.27;;
18399;SDS011;9326;49.468;11.008;2022-10-12T10:32:46;24.33;;;17.90;;
18399;SDS011;9326;49.468;11.008;2022-10-12T10:35:18;24.10;;;17.53;;
18399;SDS011;9326;49.468;11.008;2022-10-12T10:37:47;25.00;;;18.67;;
18399;SDS011;9326;49.468;11.008;2022-10-12T10:40:16;25.17;;;18.30;;
18399;SDS011;9326;49.468;11.008;2022-10-12T10:42:46;23.40;;;18.87;;
18399;SDS011;9326;49.468;11.008;2022-10-12T10:45:19;28.67;;;18.47;;
18399;SDS011;9326;49.468;11.008;2022-10-12T10:47:48;22.17;;;17.63;;
18399;SDS011;9326;49.468;11.008;2022-10-12T10:50:22;26.20;;;17.33;;
18399;SDS011;9326;49.468;11.008;2022-10-12T10:52:52;21.57;;;16.30;;
18399;SDS011;9326;49.468;11.008;2022-10-12T10:55:21;20.67;;;16.27;;
18399;SDS011;9326;49.468;11.008;2022-10-12T10:57:52;19.20;;;15.60;;
18399;SDS011;9326;49.468;11.008;2022-10-12T11:00:20;21.60;;;15.80;;
18399;SDS011;9326;49.468;11.008;2022-10-12T11:02:48;23.63;;;17.07;;
18399;SDS011;9326;49.468;11.008;2022-10-12T11:05:17;21.90;;;16.70;;
18399;SDS011;9326;49.468;11.008;2022-10-12T11:07:46;19.93;;;15.97;;
18399;SDS011;9326;49.468;11.008;2022-10-12T11:10:16;20.33;;;15.47;;
18399;SDS011;9326;49.468;11.008;2022-10-12T11:12:48;19.53;;;16.10;;
18399;SDS011;9326;49.468;11.008;2022-10-12T11:15:17;23.33;;;16.80;;
18399;SDS011;9326;49.468;11.008;2022-10-12T11:17:47;17.73;;;14.73;;
18399;SDS011;9326;49.468;11.008;2022-10-12T11:20:29;18.73;;;14.27;;
18399;SDS011;9326;49.468;11.008;2022-10-12T11:23:00;22.07;;;16.23;;
18399;SDS011;9326;49.468;11.008;2022-10-12T11:25:30;18.90;;;16.03;;
18399;SDS011;9326;49.468;11.008;2022-10-12T11:28:00;24.17;;;15.77;;
18399;SDS011;9326;49.468;11.008;2022-10-12T11:30:30;19.47;;;15.73;;
18399;SDS011;9326;49.468;11.008;2022-10-12T11:33:02;19.97;;;14.53;;
18399;SDS011;9326;49.468;11.008;2022-10-12T11:35:32;18.73;;;15.00;;
18399;SDS011;9326;49.468;11.008;2022-10-12T11:38:01;18.63;;;15.20;;
18399;SDS011;9326;49.468;11.008;2022-10-12T11:40:35;21.27;;;15.10;;
18399;SDS011;9326;49.468;11.008;2022-10-12T11:43:04;19.90;;;15.00;;
18399;SDS011;9326;49.468;11.008;2022-10-12T11:45:34;20.23;;;16.27;;
18399;SDS011;9326;49.468;11.008;2022-10-12T11:48:04;24.33;;;16.43;;
18399;SDS011;9326;49.468;11.008;2022-10-12T11:50:36;19.80;;;15.93;;
18399;SDS011;9326;49.468;11.008;2022-10-12T11:53:05;24.27;;;16.57;;
18399;SDS011;9326;49.468;11.008;2022-10-12T11:55:51;21.47;;;16.00;;
18399;SDS011;9326;49.468;11.008;2022-10-12T11:58:22;20.83;;;14.70;;
18399;SDS011;9326;49.468;11.008;2022-10-12T12:00:54;17.77;;;13.97;;
18399;SDS011;9326;49.468;11.008;2022-10-12T12:03:25;17.90;;;14.77;;
18399;SDS011;9326;49.468;11.008;2022-10-12T12:05:54;17.80;;;14.23;;
18399;SDS011;9326;49.468;11.008;2022-10-12T12:08:22;20.77;;;15.33;;
18399;SDS011;9326;49.468;11.008;2022-10-12T12:10:51;19.37;;;15.53;;
18399;SDS011;9326;49.468;11.008;2022-10-12T12:13:20;16.30;;;14.60;;
18399;SDS011;9326;49.468;11.008;2022-10-12T12:19:08;19.77;;;14.50;;
18399;SDS011;9326;49.468;11.008;2022-10-12T12:21:22;17.67;;;14.73;;
18399;SDS011;9326;49.468;11.008;2022-10-12T12:23:50;18.10;;;14.67;;
18399;SDS011;9326;49.468;11.008;2022-10-12T12:26:20;18.97;;;15.13;;
18399;SDS011;9326;49.468;11.008;2022-10-12T12:28:48;19.10;;;14.83;;
18399;SDS011;9326;49.468;11.008;2022-10-12T12:31:16;20.40;;;15.27;;
18399;SDS011;9326;49.468;11.008;2022-10-12T12:33:59;20.03;;;15.17;;
18399;SDS011;9326;49.468;11.008;2022-10-12T12:36:27;16.70;;;14.73;;
18399;SDS011;9326;49.468;11.008;2022-10-12T12:38:55;17.53;;;15.40;;
18399;SDS011;9326;49.468;11.008;2022-10-12T12:41:25;17.50;;;15.40;;
18399;SDS011;9326;49.468;11.008;2022-10-12T12:43:57;19.83;;;15.13;;
18399;SDS011;9326;49.468;11.008;2022-10-12T12:46:26;20.83;;;15.30;;
18399;SDS011;9326;49.468;11.008;2022-10-12T12:49:25;20.87;;;15.10;;
18399;SDS011;9326;49.468;11.008;2022-10-12T12:51:52;18.20;;;14.63;;
18399;SDS011;9326;49.468;11.008;2022-10-12T12:54:22;17.70;;;15.50;;
18399;SDS011;9326;49.468;11.008;2022-10-12T12:56:50;19.70;;;15.10;;
18399;SDS011;9326;49.468;11.008;2022-10-12T12:59:30;19.47;;;14.27;;
18399;SDS011;9326;49.468;11.008;2022-10-12T13:02:08;18.83;;;15.37;;
18399;SDS011;9326;49.468;11.008;2022-10-12T13:04:42;15.10;;;13.50;;
18399;SDS011;9326;49.468;11.008;2022-10-12T13:07:20;16.97;;;14.50;;
18399;SDS011;9326;49.468;11.008;2022-10-12T13:10:01;19.30;;;13.27;;
18399;SDS011;9326;49.468;11.008;2022-10-12T13:12:39;20.43;;;14.27;;
18399;SDS011;9326;49.468;11.008;2022-10-12T13:15:17;19.47;;;13.50;;
18399;SDS011;9326;49.468;11.008;2022-10-12T13:17:57;21.17;;;14.00;;
18399;SDS011;9326;49.468;11.008;2022-10-12T13:20:29;16.77;;;13.93;;
18399;SDS011;9326;49.468;11.008;2022-10-12T13:22:58;16.83;;;13.37;;
18399;SDS011;9326;49.468;11.008;2022-10-12T13:25:28;18.93;;;14.37;;
18399;SDS011;9326;49.468;11.008;2022-10-12T13:27:57;19.17;;;14.33;;
18399;SDS011;9326;49.468;11.008;2022-10-12T13:30:27;16.80;;;13.27;;
18399;SDS011;9326;49.468;11.008;2022-10-12T13:32:57;17.80;;;13.70;;
18399;SDS011;9326;49.468;11.008;2022-10-12T13:35:28;15.30;;;13.63;;
18399;SDS011;9326;49.468;11.008;2022-10-12T13:38:01;17.23;;;13.33;;
18399;SDS011;9326;49.468;11.008;2022-10-12T13:40:29;17.73;;;14.60;;
18399;SDS011;9326;49.468;11.008;2022-10-12T13:42:56;18.00;;;14.03;;
18399;SDS011;9326;49.468;11.008;2022-10-12T13:45:43;17.77;;;14.50;;
18399;SDS011;9326;49.468;11.008;2022-10-12T13:48:11;19.63;;;14.37;;
18399;SDS011;9326;49.468;11.008;2022-10-12T13:50:48;20.90;;;14.60;;
18399;SDS011;9326;49.468;11.008;2022-10-12T13:53:16;19.13;;;15.23;;
18399;SDS011;9326;49.468;11.008;2022-10-12T13:55:49;21.40;;;15.40;;
18399;SDS011;9326;49.468;11.008;2022-10-12T13:58:20;21.63;;;15.83;;
18399;SDS011;9326;49.468;11.008;2022-10-12T14:00:48;22.67;;;16.27;;
18399;SDS011;9326;49.468;11.008;2022-10-12T14:03:15;19.97;;;15.63;;
18399;SDS011;9326;49.468;11.008;2022-10-12T14:05:43;20.33;;;15.73;;
18399;SDS011;9326;49.468;11.008;2022-10-12T14:08:11;23.50;;;17.33;;
18399;SDS011;9326;49.468;11.008;2022-10-12T14:10:41;21.83;;;17.10;;
18399;SDS011;9326;49.468;11.008;2022-10-12T14:13:10;20.13;;;17.07;;
18399;SDS011;9326;49.468;11.008;2022-10-12T14:15:39;21.50;;;17.30;;
18399;SDS011;9326;49.468;11.008;2022-10-12T14:20:48;20.27;;;17.87;;
18399;SDS011;9326;49.468;11.008;2022-10-12T14:23:16;24.07;;;18.07;;
18399;SDS011;9326;49.468;11.008;2022-10-12T14:25:50;22.03;;;18.30;;
18399;SDS011;9326;49.468;11.008;2022-10-12T14:28:20;25.20;;;18.43;;
18399;SDS011;9326;49.468;11.008;2022-10-12T14:30:52;22.13;;;17.63;;
18399;SDS011;9326;49.468;11.008;2022-10-12T14:33:20;23.93;;;18.63;;
18399;SDS011;9326;49.468;11.008;2022-10-12T14:35:48;21.73;;;19.20;;
18399;SDS011;9326;49.468;11.008;2022-10-12T14:38:34;22.17;;;17.80;;
18399;SDS011;9326;49.468;11.008;2022-10-12T14:43:50;26.10;;;20.37;;
18399;SDS011;9326;49.468;11.008;2022-10-12T14:46:28;23.97;;;19.77;;
18399;SDS011;9326;49.468;11.008;2022-10-12T14:48:55;26.47;;;19.53;;
18399;SDS011;9326;49.468;11.008;2022-10-12T14:51:22;26.20;;;19.70;;
18399;SDS011;9326;49.468;11.008;2022-10-12T14:53:56;26.27;;;19.23;;
18399;SDS011;9326;49.468;11.008;2022-10-12T14:56:23;25.27;;;19.63;;
18399;SDS011;9326;49.468;11.008;2022-10-12T14:58:51;26.97;;;20.73;;
18399;SDS011;9326;49.468;11.008;2022-10-12T15:01:18;27.50;;;20.70;;
18399;SDS011;9326;49.468;11.008;2022-10-12T15:03:46;26.10;;;20.23;;
18399;SDS011;9326;49.468;11.008;2022-10-12T15:06:13;24.10;;;19.83;;
18399;SDS011;9326;49.468;11.008;2022-10-12T15:08:40;22.97;;;19.90;;
18399;SDS011;9326;49.468;11.008;2022-10-12T15:11:08;28.43;;;22.03;;
18399;SDS011;9326;49.468;11.008;2022-10-12T15:13:36;30.83;;;20.43;;
18399;SDS011;9326;49.468;11.008;2022-10-12T15:16:04;30.83;;;22.27;;
18399;SDS011;9326;49.468;11.008;2022-10-12T15:18:36;28.30;;;22.03;;
18399;SDS011;9326;49.468;11.008;2022-10-12T15:21:03;28.23;;;22.07;;
18399;SDS011;9326;49.468;11.008;2022-10-12T15:23:31;29.33;;;22.30;;
18399;SDS011;9326;49.468;11.008;2022-10-12T15:25:58;27.63;;;21.40;;
18399;SDS011;9326;49.468;11.008;2022-10-12T15:28:25;29.77;;;22.40;;
18399;SDS011;9326;49.468;11.008;2022-10-12T15:30:53;28.53;;;22.10;;
18399;SDS011;9326;49.468;11.008;2022-10-12T15:33:23;27.50;;;22.60;;
18399;SDS011;9326;49.468;11.008;2022-10-12T15:35:50;29.97;;;23.37;;
18399;SDS011;9326;49.468;11.008;2022-10-12T15:38:17;29.13;;;22.23;;
18399;SDS011;9326;49.468;11.008;2022-10-12T15:40:44;29.40;;;22.67;;
18399;SDS011;9326;49.468;11.008;2022-10-12T15:43:11;29.40;;;24.57;;
18399;SDS011;9326;49.468;11.008;2022-10-12T15:45:39;30.40;;;23.30;;
18399;SDS011;9326;49.468;11.008;2022-10-12T15:48:07;28.63;;;23.93;;
18399;SDS011;9326;49.468;11.008;2022-10-12T15:50:36;31.50;;;23.73;;
18399;SDS011;9326;49.468;11.008;2022-10-12T15:53:04;28.90;;;23.03;;
18399;SDS011;9326;49.468;11.008;2022-10-12T15:55:31;29.23;;;23.77;;
18399;SDS011;9326;49.468;11.008;2022-10-12T15:57:58;32.37;;;24.00;;
18399;SDS011;9326;49.468;11.008;2022-10-12T16:00:26;30.97;;;24.00;;
18399;SDS011;9326;49.468;11.008;2022-10-12T16:02:56;29.83;;;23.07;;
18399;SDS011;9326;49.468;11.008;2022-10-12T16:05:24;29.50;;;23.57;;
18399;SDS011;9326;49.468;11.008;2022-10-12T16:07:53;28.13;;;22.00;;
18399;SDS011;9326;49.468;11.008;2022-10-12T16:10:21;29.93;;;23.47;;
18399;SDS011;9326;49.468;11.008;2022-10-12T16:12:49;30.03;;;24.80;;
18399;SDS011;9326;49.468;11.008;2022-10-12T16:15:19;32.07;;;24.77;;
18399;SDS011;9326;49.468;11.008;2022-10-12T16:17:46;31.63;;;25.07;;
18399;SDS011;9326;49.468;11.008;2022-10-12T16:20:13;32.57;;;25.63;;
18399;SDS011;9326;49.468;11.008;2022-10-12T16:22:40;33.00;;;25.63;;
18399;SDS011;9326;49.468;11.008;2022-10-12T16:25:10;34.90;;;26.67;;
18399;SDS011;9326;49.468;11.008;2022-10-12T16:27:37;37.53;;;27.20;;
18399;SDS011;9326;49.468;11.008;2022-10-12T16:30:05;35.30;;;26.73;;
18399;SDS011;9326;49.468;11.008;2022-10-12T16:32:32;34.77;;;25.70;;
18399;SDS011;9326;49.468;11.008;2022-10-12T16:34:59;32.20;;;25.10;;
18399;SDS011;9326;49.468;11.008;2022-10-12T16:37:26;31.67;;;25.30;;
18399;SDS011;9326;49.468;11.008;2022-10-12T16:39:55;35.33;;;25.83;;
18399;SDS011;9326;49.468;11.008;2022-10-12T16:42:23;36.57;;;27.10;;
18399;SDS011;9326;49.468;11.008;2022-10-12T16:44:50;34.30;;;26.37;;
18399;SDS011;9326;49.468;11.008;2022-10-12T16:47:18;34.93;;;25.33;;
18399;SDS011;9326;49.468;11.008;2022-10-12T16:49:45;34.97;;;26.40;;
18399;SDS011;9326;49.468;11.008;2022-10-12T16:52:12;33.20;;;26.03;;
18399;SDS011;9326;49.468;11.008;2022-10-12T16:54:39;36.20;;;26.27;;
18399;SDS011;9326;49.468;11.008;2022-10-12T16:57:06;32.27;;;25.83;;
18399;SDS011;9326;49.468;11.008;2022-10-12T16:59:35;32.47;;;24.90;;
18399;SDS011;9326;49.468;11.008;2022-10-12T17:02:02;34.07;;;26.07;;
18399;SDS011;9326;49.468;11.008;2022-10-12T17:04:29;34.93;;;26.30;;
18399;SDS011;9326;49.468;11.008;2022-10-12T17:06:56;38.03;;;27.13;;
18399;SDS011;9326;49.468;11.008;2022-10-12T17:09:23;36.47;;;27.17;;
18399;SDS011;9326;49.468;11.008;2022-10-12T17:11:51;38.83;;;27.30;;
18399;SDS011;9326;49.468;11.008;2022-10-12T17:14:18;34.40;;;26.07;;
18399;SDS011;9326;49.468;11.008;2022-10-12T17:16:47;38.83;;;28.73;;
18399;SDS011;9326;49.468;11.008;2022-10-12T17:19:14;38.17;;;28.27;;
18399;SDS011;9326;49.468;11.008;2022-10-12T17:21:41;37.43;;;28.03;;
18399;SDS011;9326;49.468;11.008;2022-10-12T17:24:08;35.03;;;27.83;;
18399;SDS011;9326;49.468;11.008;2022-10-12T17:26:36;42.23;;;30.47;;
18399;SDS011;9326;49.468;11.008;2022-10-12T17:29:03;43.27;;;30.37;;
18399;SDS011;9326;49.468;11.008;2022-10-12T17:31:30;39.13;;;29.30;;
18399;SDS011;9326;49.468;11.008;2022-10-12T17:33:59;38.77;;;28.17;;
18399;SDS011;9326;49.468;11.008;2022-10-12T17:36:26;35.27;;;26.63;;
18399;SDS011;9326;49.468;11.008;2022-10-12T17:38:54;36.57;;;26.03;;
18399;SDS011;9326;49.468;11.008;2022-10-12T17:41:21;37.83;;;27.47;;
18399;SDS011;9326;49.468;11.008;2022-10-12T17:43:48;39.60;;;28.67;;
18399;SDS011;9326;49.468;11.008;2022-10-12T17:46:15;38.40;;;29.03;;
18399;SDS011;9326;49.468;11.008;2022-10-12T17:48:42;43.70;;;30.03;;
18399;SDS011;9326;49.468;11.008;2022-10-12T17:51:11;45.13;;;32.17;;
18399;SDS011;9326;49.468;11.008;2022-10-12T17:53:40;49.37;;;33.23;;
18399;SDS011;9326;49.468;11.008;2022-10-12T17:56:09;45.67;;;31.83;;
18399;SDS011;9326;49.468;11.008;2022-10-12T17:58:37;42.53;;;29.90;;
18399;SDS011;9326;49.468;11.008;2022-10-12T18:01:04;42.13;;;31.30;;
18399;SDS011;9326;49.468;11.008;2022-10-12T18:03:32;41.93;;;30.50;;
18399;SDS011;9326;49.468;11.008;2022-10-12T18:06:02;41.30;;;31.50;;
18399;SDS011;9326;49.468;11.008;2022-10-12T18:08:30;45.87;;;31.47;;
18399;SDS011;9326;49.468;11.008;2022-10-12T18:10:57;44.87;;;32.83;;
18399;SDS011;9326;49.468;11.008;2022-10-12T18:13:25;49.80;;;33.63;;
18399;SDS011;9326;49.468;11.008;2022-10-12T18:15:52;51.80;;;32.73;;
18399;SDS011;9326;49.468;11.008;2022-10-12T18:18:19;47.17;;;31.97;;
18399;SDS011;9326;49.468;11.008;2022-10-12T18:20:46;46.07;;;32.90;;
18399;SDS011;9326;49.468;11.008;2022-10-12T18:23:14;63.83;;;42.13;;
18399;SDS011;9326;49.468;11.008;2022-10-12T18:25:42;95.97;;;63.57;;
18399;SDS011;9326;49.468;11.008;2022-10-12T18:28:11;60.67;;;39.43;;
18399;SDS011;9326;49.468;11.008;2022-10-12T18:30:44;51.93;;;33.73;;
18399;SDS011;9326;49.468;11.008;2022-10-12T18:33:11;49.53;;;34.80;;
18399;SDS011;9326;49.468;11.008;2022-10-12T18:35:39;49.27;;;34.47;;
18399;SDS011;9326;49.468;11.008;2022-10-12T18:38:06;50.43;;;34.87;;
18399;SDS011;9326;49.468;11.008;2022-10-12T18:40:33;51.10;;;34.10;;
18399;SDS011;9326;49.468;11.008;2022-10-12T18:43:01;50.97;;;36.20;;
18399;SDS011;9326;49.468;11.008;2022-10-12T18:45:29;50.57;;;34.60;;
18399;SDS011;9326;49.468;11.008;2022-10-12T18:47:56;53.73;;;35.73;;
18399;SDS011;9326;49.468;11.008;2022-10-12T18:50:23;51.60;;;35.90;;
18399;SDS011;9326;49.468;11.008;2022-10-12T18:52:50;51.53;;;35.70;;
18399;SDS011;9326;49.468;11.008;2022-10-12T18:55:18;49.77;;;35.47;;
18399;SDS011;9326;49.468;11.008;2022-10-12T18:57:45;49.70;;;35.43;;
18399;SDS011;9326;49.468;11.008;2022-10-12T19:00:14;52.97;;;37.10;;
18399;SDS011;9326;49.468;11.008;2022-10-12T19:02:41;52.90;;;37.70;;
18399;SDS011;9326;49.468;11.008;2022-10-12T19:05:08;50.03;;;35.87;;
18399;SDS011;9326;49.468;11.008;2022-10-12T19:07:35;49.23;;;34.57;;
18399;SDS011;9326;49.468;11.008;2022-10-12T19:10:03;46.70;;;34.17;;
18399;SDS011;9326;49.468;11.008;2022-10-12T19:12:32;45.57;;;33.77;;
18399;SDS011;9326;49.468;11.008;2022-10-12T19:14:59;41.87;;;30.80;;
18399;SDS011;9326;49.468;11.008;2022-10-12T19:17:28;41.27;;;30.10;;
18399;SDS011;9326;49.468;11.008;2022-10-12T19:19:56;41.40;;;30.70;;
18399;SDS011;9326;49.468;11.008;2022-10-12T19:22:23;40.73;;;30.53;;
18399;SDS011;9326;49.468;11.008;2022-10-12T19:24:50;42.33;;;31.00;;
18399;SDS011;9326;49.468;11.008;2022-10-12T19:27:18;40.07;;;31.17;;
18399;SDS011;9326;49.468;11.008;2022-10-12T19:29:45;47.40;;;34.73;;
18399;SDS011;9326;49.468;11.008;2022-10-12T19:32:12;46.03;;;32.73;;
18399;SDS011;9326;49.468;11.008;2022-10-12T19:34:41;46.43;;;32.67;;
18399;SDS011;9326;49.468;11.008;2022-10-12T19:37:08;43.80;;;32.53;;
18399;SDS011;9326;49.468;11.008;2022-10-12T19:39:35;46.17;;;33.00;;